For water level readings from Victoria harbour, visit our Tides page.

DISCLAIMER: Although GVHA takes care to produce accurate readings from Ogden Point, the weather information on this site is raw data fed directly from sensors. It does not go through the same quality control processes used by professional weather services, and should not be relied on as a sole source of weather information for Victoria harbour.

In-depth weather values from Victoria Harbour can be found on the Environment Canada website.

Location: Ogden Point Breakwater

Current time: Aug 23, 2019 5:41 PM GMT | Aug 23, 2019 10:41 AM

Last Hour Last 3 Hours Last 6 Hours Last 12 Hours
Time Peak Wind Speed Avg Speed Avg Direction Avg Air Temp Avg Dew Point Avg Humidity
Aug 23, 2019 10:40 AM 3.9 knots 2.9 knots 333° True 12.1° C / 54.2° F 11.1° C / 52.2° F 93.3%
Aug 23, 2019 10:30 AM 7.1 knots 4.3 knots 150° True 12.1° C / 54.2° F 11.1° C / 52.2° F 93.4%
Aug 23, 2019 10:20 AM 12.3 knots 7.6 knots 252° True 12.2° C / 54.4° F 11.2° C / 52.4° F 93.6%
Aug 23, 2019 10:10 AM 14.2 knots 6.2 knots 217° True 12.1° C / 54.2° F 11.2° C / 52.4° F 93.8%
Aug 23, 2019 10:00 AM 9.1 knots 6.8 knots 120° True 12.2° C / 54.4° F 11.1° C / 52.2° F 93%
Aug 23, 2019 09:50 AM 6.5 knots 5.1 knots 125° True 12.5° C / 55° F 11.1° C / 52.2° F 91.6%
Aug 23, 2019 09:40 AM 7.1 knots 5.5 knots 172° True 12.5° C / 55° F 11.2° C / 52.4° F 91.8%
Aug 23, 2019 09:30 AM 6.9 knots 5.5 knots 172° True 12.4° C / 54.8° F 10.9° C / 51.8° F 90.5%
Aug 23, 2019 09:20 AM 7 knots 5.8 knots 188° True 12.6° C / 55.2° F 11° C / 52° F 90.1%
Aug 23, 2019 09:10 AM 6 knots 3.5 knots 182° True 12.9° C / 55.8° F 11.5° C / 53° F 91.5%
Aug 23, 2019 09:00 AM 2.6 knots 1 knots 251° True 13.1° C / 56.2° F 11.6° C / 53.2° F 90.6%
Aug 23, 2019 08:50 AM 3.8 knots 2.2 knots 290° True 13.1° C / 56.2° F 11.4° C / 52.8° F 89.3%
Aug 23, 2019 08:40 AM 7.2 knots 5.7 knots 258° True 13° C / 56° F 11.1° C / 52.2° F 88.3%
Aug 23, 2019 08:30 AM 5.6 knots 4.2 knots 250° True 13° C / 56° F 11.1° C / 52.2° F 88.1%
Aug 23, 2019 08:20 AM 2.3 knots 1.3 knots 331° True 12.9° C / 55.8° F 11° C / 52° F 87.8%
Aug 23, 2019 08:10 AM 3.9 knots 2.6 knots 293° True 12.9° C / 55.8° F 11° C / 52° F 87.7%
Aug 23, 2019 08:00 AM 4.1 knots 3.1 knots 297° True 12.8° C / 55.6° F 10.9° C / 51.8° F 87.9%
Aug 23, 2019 07:50 AM 5.7 knots 4.8 knots 260° True 12.7° C / 55.4° F 10.6° C / 51.2° F 87%
Aug 23, 2019 07:40 AM 8.4 knots 7.2 knots 247° True 12.5° C / 55° F 10.6° C / 51.2° F 88.1%
Aug 23, 2019 07:30 AM 8.6 knots 6.8 knots 227° True 12.7° C / 55.4° F 10.4° C / 50.8° F 85.8%
Aug 23, 2019 07:20 AM 8.2 knots 6.4 knots 186° True 12.5° C / 55° F 10.4° C / 50.8° F 87%
Aug 23, 2019 07:10 AM 5.9 knots 4.7 knots 130° True 12.5° C / 55° F 10.5° C / 51° F 87.5%
Aug 23, 2019 07:00 AM 5.5 knots 4.3 knots 197° True 12.7° C / 55.4° F 10.4° C / 50.8° F 86.2%
Aug 23, 2019 06:50 AM 7.7 knots 5 knots 242° True 12.7° C / 55.4° F 10.5° C / 51° F 86.5%
Aug 23, 2019 06:40 AM 7.3 knots 3.6 knots 203° True 12.9° C / 55.8° F 10.4° C / 50.8° F 85%
Aug 23, 2019 06:30 AM 9.4 knots 8.2 knots 192° True 13° C / 56° F 10.4° C / 50.8° F 84.1%
Aug 23, 2019 06:20 AM 11.9 knots 9.2 knots 185° True 13.2° C / 56.4° F 10.3° C / 50.6° F 82.6%
Aug 23, 2019 06:10 AM 12.4 knots 10.4 knots 193° True 13.1° C / 56.2° F 10.2° C / 50.4° F 82.9%
Aug 23, 2019 06:00 AM 13 knots 10.6 knots 195° True 13.3° C / 56.6° F 10.2° C / 50.4° F 81.7%
Aug 23, 2019 05:50 AM 13.3 knots 11.2 knots 198° True 13.4° C / 56.8° F 10.2° C / 50.4° F 81.3%
Aug 23, 2019 05:40 AM 11 knots 9.7 knots 194° True 13.2° C / 56.4° F 10.3° C / 50.6° F 82.8%
Aug 23, 2019 05:30 AM 9.7 knots 5.5 knots 196° True 12.7° C / 55.4° F 10.5° C / 51° F 86.1%
Aug 23, 2019 05:20 AM 6.6 knots 4.3 knots 185° True 12.8° C / 55.6° F 10.4° C / 50.8° F 85.3%
Aug 23, 2019 05:10 AM 7.2 knots 5.3 knots 185° True 13° C / 56° F 10.4° C / 50.8° F 84.4%
Aug 23, 2019 05:00 AM 9.1 knots 8.1 knots 190° True 13.1° C / 56.2° F 10.5° C / 51° F 84%
Aug 23, 2019 04:50 AM 11.6 knots 9.7 knots 199° True 13.2° C / 56.4° F 10.4° C / 50.8° F 83.3%
Aug 23, 2019 04:40 AM 10.8 knots 6.6 knots 225° True 13° C / 56° F 10.6° C / 51.2° F 85.1%
Aug 23, 2019 04:30 AM 12.6 knots 11.3 knots 200° True 13.1° C / 56.2° F 10.5° C / 51° F 84.2%
Aug 23, 2019 04:20 AM 10.9 knots 6.8 knots 222° True 13° C / 56° F 10.6° C / 51.2° F 85.5%
Aug 23, 2019 04:10 AM 7.7 knots 6.1 knots 238° True 12.9° C / 55.8° F 10.7° C / 51.4° F 86.5%
Aug 23, 2019 04:00 AM 10 knots 8.3 knots 223° True 12.7° C / 55.4° F 10.7° C / 51.4° F 87.5%
Aug 23, 2019 03:50 AM 7.6 knots 6.4 knots 203° True 12.7° C / 55.4° F 10.7° C / 51.4° F 87.8%
Aug 23, 2019 03:40 AM 7.5 knots 6.3 knots 208° True 12.8° C / 55.6° F 10.8° C / 51.6° F 87.3%
Aug 23, 2019 03:30 AM 5.4 knots 4.3 knots 186° True 12.7° C / 55.4° F 10.9° C / 51.8° F 88.7%
Aug 23, 2019 03:20 AM 3.8 knots 2.8 knots 152° True 12.6° C / 55.2° F 10.8° C / 51.6° F 88.9%
Aug 23, 2019 03:10 AM 2.3 knots 1.9 knots 196° True 12.9° C / 55.8° F 10.8° C / 51.6° F 87.3%
Aug 23, 2019 03:00 AM 4.9 knots 3.1 knots 206° True 12.8° C / 55.6° F 10.9° C / 51.8° F 88%
Aug 23, 2019 02:50 AM 6.8 knots 5.5 knots 206° True 12.7° C / 55.4° F 10.9° C / 51.8° F 89.1%
Aug 23, 2019 02:40 AM 5.4 knots 4.6 knots 202° True 12.7° C / 55.4° F 10.9° C / 51.8° F 88.8%
Aug 23, 2019 02:30 AM 5.1 knots 3.7 knots 209° True 12.7° C / 55.4° F 10.9° C / 51.8° F 89.2%
Aug 23, 2019 02:20 AM 4.1 knots 1.5 knots 208° True 12.6° C / 55.2° F 10.9° C / 51.8° F 89.2%
Aug 23, 2019 02:10 AM 2.5 knots 1.4 knots 192° True 12.7° C / 55.4° F 10.9° C / 51.8° F 88.9%
Aug 23, 2019 02:00 AM 3.8 knots 2.2 knots 196° True 12.8° C / 55.6° F 10.9° C / 51.8° F 88.1%
Aug 23, 2019 01:50 AM 4 knots 2.6 knots 179° True 13° C / 56° F 10.8° C / 51.6° F 86.6%
Aug 23, 2019 01:40 AM 5.4 knots 1.8 knots 188° True 13.2° C / 56.4° F 10.8° C / 51.6° F 85.4%
Aug 23, 2019 01:30 AM 1.9 knots 0.6 knots 177° True 13.2° C / 56.4° F 10.8° C / 51.6° F 84.9%
Aug 23, 2019 01:20 AM 3.4 knots 2 knots 202° True 13.4° C / 56.8° F 10.8° C / 51.6° F 84.3%
Aug 23, 2019 01:10 AM 2.6 knots 0.3 knots 204° True 13.5° C / 57° F 10.7° C / 51.4° F 83.3%
Aug 23, 2019 01:00 AM 5 knots 3 knots 227° True 13.7° C / 57.4° F 10.7° C / 51.4° F 82.1%
Aug 23, 2019 12:50 AM 7.5 knots 4.7 knots 215° True 13.4° C / 56.8° F 10.7° C / 51.4° F 83.5%
Aug 23, 2019 12:40 AM 5.9 knots 1.5 knots 217° True 13.3° C / 56.6° F 10.7° C / 51.4° F 84.2%
Aug 23, 2019 12:30 AM 8.4 knots 7.3 knots 201° True 13.6° C / 57.2° F 10.6° C / 51.2° F 82%
Aug 23, 2019 12:20 AM 10.3 knots 7.9 knots 195° True 14° C / 58° F 10.4° C / 50.8° F 79%
Aug 23, 2019 12:10 AM 10 knots 8.1 knots 198° True 14.1° C / 58.2° F 10.4° C / 50.8° F 78.2%
Aug 23, 2019 12:00 AM 11.2 knots 9.1 knots 202° True 14.9° C / 59.8° F 10.3° C / 50.6° F 74.2%
Aug 22, 2019 11:50 PM 11.2 knots 7.9 knots 212° True 14.2° C / 58.4° F 10.3° C / 50.6° F 77.2%
Aug 22, 2019 11:40 PM 9.6 knots 6.4 knots 184° True 12.6° C / 55.2° F 10.6° C / 51.2° F 87.8%
Aug 22, 2019 11:30 PM 9.7 knots 8.5 knots 175° True 12.4° C / 54.8° F 10.8° C / 51.6° F 89.9%
Aug 22, 2019 11:20 PM 10.4 knots 9.4 knots 171° True 12.5° C / 55° F 10.8° C / 51.6° F 89.1%
Aug 22, 2019 11:10 PM 10.4 knots 9.1 knots 165° True 12.6° C / 55.2° F 10.7° C / 51.4° F 87.9%
Aug 22, 2019 11:00 PM 8.6 knots 7.8 knots 161° True 12.5° C / 55° F 10.7° C / 51.4° F 89.1%
Aug 22, 2019 10:50 PM 7.9 knots 6.9 knots 161° True 12.5° C / 55° F 10.8° C / 51.6° F 89.4%